createdAt,value
2023-04-16T00:00:36.327Z,100219.22
2023-04-16T00:03:04.035Z,100192.81
2023-04-16T00:05:31.731Z,100196.69
2023-04-16T00:07:59.188Z,100205.78
2023-04-16T00:10:26.609Z,100194.53
2023-04-16T00:12:54.027Z,100200.78
2023-04-16T00:15:21.428Z,100199.78
2023-04-16T00:17:48.875Z,100207.72
2023-04-16T00:20:16.388Z,100208.38
2023-04-16T00:22:43.703Z,100217.19
2023-04-16T00:25:11.127Z,100203.03
2023-04-16T00:27:38.505Z,100204.72
2023-04-16T00:30:07.352Z,100202.91
2023-04-16T00:32:34.729Z,100206.09
2023-04-16T00:35:02.130Z,100200.06
2023-04-16T00:37:30.507Z,100213.28
2023-04-16T00:39:57.891Z,100207.09
2023-04-16T00:42:25.650Z,100217.19
2023-04-16T00:44:53.005Z,100214.25
2023-04-16T00:47:21.781Z,100200.81
2023-04-16T00:49:49.399Z,100222.28
2023-04-16T00:52:16.728Z,100213.88
2023-04-16T00:54:44.236Z,100204.69
2023-04-16T00:57:14.606Z,100216.00
2023-04-16T00:59:43.738Z,100203.75
2023-04-16T01:02:11.340Z,100203.69
2023-04-16T01:04:38.985Z,100208.81
2023-04-16T01:07:06.532Z,100226.19
2023-04-16T01:09:33.904Z,100229.53
2023-04-16T01:12:03.891Z,100221.16
2023-04-16T01:14:36.209Z,100218.31
2023-04-16T01:17:04.306Z,100221.19
2023-04-16T01:19:31.749Z,100218.16
2023-04-16T01:21:59.290Z,100211.31
2023-04-16T01:24:26.654Z,100203.47
2023-04-16T01:26:54.095Z,100208.22
2023-04-16T01:29:21.496Z,100213.06
2023-04-16T01:31:50.849Z,100198.84
2023-04-16T01:34:31.794Z,100212.94
2023-04-16T01:36:59.180Z,100206.25
2023-04-16T01:39:27.333Z,100220.00
2023-04-16T01:41:54.738Z,100214.34
2023-04-16T01:44:23.206Z,100217.13
2023-04-16T01:46:50.718Z,100206.38
2023-04-16T01:49:18.333Z,100226.38
2023-04-16T01:51:45.807Z,100218.50
2023-04-16T01:54:13.291Z,100218.75
2023-04-16T01:56:40.677Z,100208.56
2023-04-16T01:59:08.432Z,100203.94
2023-04-16T02:01:40.488Z,100229.50
2023-04-16T02:04:08.597Z,100225.41
2023-04-16T02:06:36.188Z,100236.28
2023-04-16T02:09:03.903Z,100237.22
2023-04-16T02:11:31.582Z,100230.94
2023-04-16T02:13:59.163Z,100226.69
2023-04-16T02:16:26.693Z,100221.34
2023-04-16T02:19:00.037Z,100231.25
2023-04-16T02:21:31.904Z,100233.59
2023-04-16T02:23:59.308Z,100232.34
2023-04-16T02:26:30.316Z,100227.84
2023-04-16T02:29:03.527Z,100227.78
2023-04-16T02:31:38.758Z,100230.50
2023-04-16T02:34:06.977Z,100240.00
2023-04-16T02:36:34.465Z,100234.50
2023-04-16T02:39:02.122Z,100229.84
2023-04-16T02:41:29.567Z,100227.94
2023-04-16T02:43:56.945Z,100240.47
2023-04-16T02:46:24.518Z,100239.22
2023-04-16T02:48:51.990Z,100240.84
2023-04-16T02:51:19.373Z,100242.22
2023-04-16T02:53:46.869Z,100227.09
2023-04-16T02:56:14.885Z,100224.34
2023-04-16T02:58:42.313Z,100243.28
2023-04-16T03:01:11.062Z,100230.16
2023-04-16T03:03:38.645Z,100251.22
2023-04-16T03:06:06.118Z,100246.66
2023-04-16T03:08:33.466Z,100254.50
2023-04-16T03:11:00.870Z,100264.03
2023-04-16T03:13:28.224Z,100248.91
2023-04-16T03:15:55.830Z,100260.88
2023-04-16T03:18:23.388Z,100271.56
2023-04-16T03:20:53.974Z,100259.63
2023-04-16T03:23:21.385Z,100265.56
2023-04-16T03:25:48.768Z,100248.25
2023-04-16T03:28:18.970Z,100266.34
2023-04-16T03:30:53.660Z,100272.38
2023-04-16T03:33:21.705Z,100264.16
2023-04-16T03:35:56.115Z,100266.91
2023-04-16T03:38:25.854Z,100255.22
2023-04-16T03:40:55.642Z,100278.81
2023-04-16T03:43:23.178Z,100263.69
2023-04-16T03:45:50.996Z,100272.56
2023-04-16T03:48:21.408Z,100276.09
2023-04-16T03:50:48.911Z,100276.78
2023-04-16T03:53:18.180Z,100294.88
2023-04-16T03:55:53.606Z,100267.63
2023-04-16T03:58:22.102Z,100272.84
2023-04-16T04:00:49.485Z,100287.38
2023-04-16T04:03:18.609Z,100304.38
2023-04-16T04:05:48.561Z,100287.75
2023-04-16T04:08:21.053Z,100301.44
2023-04-16T04:10:48.714Z,100284.31
2023-04-16T04:13:16.530Z,100301.66
2023-04-16T04:15:44.517Z,100296.19
2023-04-16T04:18:11.882Z,100287.19
2023-04-16T04:20:41.104Z,100289.75
2023-04-16T04:23:09.155Z,100306.47
2023-04-16T04:25:36.949Z,100307.41
2023-04-16T04:28:04.555Z,100305.53
2023-04-16T04:30:32.050Z,100313.75
2023-04-16T04:32:59.470Z,100301.88
2023-04-16T04:35:26.993Z,100310.75
2023-04-16T04:37:54.468Z,100319.06
2023-04-16T04:40:21.856Z,100309.69
2023-04-16T04:42:49.321Z,100321.50
2023-04-16T04:45:16.983Z,100310.19
2023-04-16T04:47:44.471Z,100324.13
2023-04-16T04:50:11.907Z,100319.34
2023-04-16T04:52:39.452Z,100333.97
2023-04-16T04:55:08.195Z,100327.78
2023-04-16T04:57:36.002Z,100331.06
2023-04-16T05:00:05.232Z,100334.13
2023-04-16T05:02:40.889Z,100333.47
2023-04-16T05:05:08.912Z,100337.38
2023-04-16T05:07:36.311Z,100336.97
2023-04-16T05:10:03.943Z,100336.69
2023-04-16T05:12:31.505Z,100355.59
2023-04-16T05:14:58.909Z,100353.44
2023-04-16T05:17:26.349Z,100357.06
2023-04-16T05:19:53.787Z,100375.31
2023-04-16T05:22:21.396Z,100369.00
2023-04-16T05:24:48.736Z,100372.09
2023-04-16T05:27:16.246Z,100362.28
2023-04-16T05:29:43.619Z,100379.06
2023-04-16T05:32:11.130Z,100382.34
2023-04-16T05:34:38.530Z,100387.66
2023-04-16T05:37:05.882Z,100382.34
2023-04-16T05:39:33.247Z,100381.69
2023-04-16T05:42:00.667Z,100390.81
2023-04-16T05:44:28.138Z,100388.19
2023-04-16T05:46:55.540Z,100399.69
2023-04-16T05:49:22.833Z,100409.91
2023-04-16T05:51:51.000Z,100415.88
2023-04-16T05:54:18.538Z,100414.16
2023-04-16T05:56:45.948Z,100414.94
2023-04-16T05:59:13.212Z,100417.88
2023-04-16T06:01:41.194Z,100426.34
2023-04-16T06:04:12.933Z,100428.88
2023-04-16T06:06:40.403Z,100420.69
2023-04-16T06:09:07.970Z,100407.13
2023-04-16T06:11:36.397Z,100412.81
2023-04-16T06:14:03.962Z,100418.84
2023-04-16T06:16:31.420Z,100429.78
2023-04-16T06:18:59.200Z,100417.13
2023-04-16T06:21:26.804Z,100420.75
2023-04-16T06:23:55.165Z,100409.72
2023-04-16T06:26:22.593Z,100406.88
2023-04-16T06:28:50.512Z,100410.22
2023-04-16T06:31:18.052Z,100431.38
2023-04-16T06:33:45.659Z,100435.78
2023-04-16T06:36:13.070Z,100425.81
2023-04-16T06:38:40.677Z,100426.19
2023-04-16T06:41:08.198Z,100433.53
2023-04-16T06:43:35.716Z,100427.91
2023-04-16T06:46:03.151Z,100422.84
2023-04-16T06:48:30.611Z,100433.59
2023-04-16T06:50:58.089Z,100435.88
2023-04-16T06:53:25.591Z,100427.38
2023-04-16T06:55:53.106Z,100426.03
2023-04-16T06:58:20.714Z,100436.69
2023-04-16T07:00:48.242Z,100428.88
2023-04-16T07:03:17.073Z,100438.19
2023-04-16T07:05:44.587Z,100440.94
2023-04-16T07:08:11.981Z,100439.28
2023-04-16T07:10:39.359Z,100433.63
2023-04-16T07:13:06.772Z,100440.94
2023-04-16T07:15:34.182Z,100445.78
2023-04-16T07:18:01.624Z,100437.03
2023-04-16T07:20:29.119Z,100448.47
2023-04-16T07:22:56.787Z,100436.84
2023-04-16T07:25:24.203Z,100444.56
2023-04-16T07:27:51.940Z,100426.44
2023-04-16T07:30:19.498Z,100448.41
2023-04-16T07:32:46.983Z,100437.09
2023-04-16T07:35:14.439Z,100435.69
2023-04-16T07:37:41.858Z,100420.94
2023-04-16T07:40:09.725Z,100423.59
2023-04-16T07:42:37.118Z,100428.22
2023-04-16T07:45:04.839Z,100448.56
2023-04-16T07:47:32.258Z,100451.84
2023-04-16T07:49:59.623Z,100442.94
2023-04-16T07:52:26.974Z,100442.25
2023-04-16T07:54:54.443Z,100441.59
2023-04-16T07:57:21.838Z,100447.44
2023-04-16T07:59:49.202Z,100447.63
2023-04-16T08:02:16.999Z,100450.72
2023-04-16T08:04:44.897Z,100459.03
2023-04-16T08:07:12.572Z,100459.66
2023-04-16T08:09:53.973Z,100461.03
2023-04-16T08:12:24.480Z,100452.59
2023-04-16T08:14:53.515Z,100455.41
2023-04-16T08:17:20.895Z,100457.59
2023-04-16T08:19:48.668Z,100444.19
2023-04-16T08:22:19.267Z,100448.56
2023-04-16T08:24:48.978Z,100457.13
2023-04-16T08:27:19.674Z,100451.72
2023-04-16T08:29:48.308Z,100458.41
2023-04-16T08:32:15.690Z,100458.63
2023-04-16T08:34:43.227Z,100462.97
2023-04-16T08:37:10.697Z,100460.78
2023-04-16T08:39:38.068Z,100466.59
2023-04-16T08:42:06.233Z,100461.41
2023-04-16T08:44:42.361Z,100458.34
2023-04-16T08:47:12.629Z,100459.63
2023-04-16T08:49:46.102Z,100461.13
2023-04-16T08:52:20.272Z,100472.22
2023-04-16T08:55:14.714Z,100476.59
2023-04-16T08:57:48.617Z,100470.13
2023-04-16T09:00:16.928Z,100471.97
2023-04-16T09:02:45.018Z,100459.28
2023-04-16T09:05:21.547Z,100466.06
2023-04-16T09:07:49.189Z,100469.66
2023-04-16T09:10:17.592Z,100460.22
2023-04-16T09:12:45.397Z,100468.13
2023-04-16T09:15:14.140Z,100472.47
2023-04-16T09:17:42.017Z,100452.47
2023-04-16T09:20:11.161Z,100455.63
2023-04-16T09:22:42.399Z,100454.97
2023-04-16T09:25:11.360Z,100455.00
2023-04-16T09:27:39.468Z,100459.66
2023-04-16T09:30:23.278Z,100468.97
2023-04-16T09:32:52.359Z,100467.28
2023-04-16T09:35:20.409Z,100469.28
2023-04-16T09:37:56.948Z,100477.38
2023-04-16T09:40:26.680Z,100469.81
2023-04-16T09:42:58.191Z,100466.50
2023-04-16T09:45:25.628Z,100465.94
2023-04-16T09:47:53.026Z,100469.44
2023-04-16T09:50:20.886Z,100471.09
2023-04-16T09:52:51.306Z,100456.38
2023-04-16T09:55:27.580Z,100459.81
2023-04-16T09:58:02.225Z,100471.34
2023-04-16T10:00:31.419Z,100458.25
2023-04-16T10:03:07.215Z,100457.78
2023-04-16T10:05:35.033Z,100451.22
2023-04-16T10:08:02.511Z,100462.38
2023-04-16T10:10:30.632Z,100453.16
2023-04-16T10:12:58.449Z,100466.06
2023-04-16T10:15:25.902Z,100453.59
2023-04-16T10:17:54.069Z,100460.78
2023-04-16T10:20:23.907Z,100459.06
2023-04-16T10:22:51.910Z,100459.22
2023-04-16T10:25:19.695Z,100453.66
2023-04-16T10:27:48.047Z,100455.75
2023-04-16T10:30:16.718Z,100455.31
2023-04-16T10:32:45.165Z,100466.53
2023-04-16T10:35:19.079Z,100461.91
2023-04-16T10:37:47.708Z,100464.53
2023-04-16T10:40:26.251Z,100471.34
2023-04-16T10:42:58.034Z,100459.84
2023-04-16T10:45:29.539Z,100447.03
2023-04-16T10:47:57.963Z,100450.25
2023-04-16T10:50:25.517Z,100446.59
2023-04-16T10:53:20.620Z,100440.22
2023-04-16T10:56:03.303Z,100437.97
2023-04-16T10:58:31.943Z,100442.03
2023-04-16T11:01:00.495Z,100442.16
2023-04-16T11:03:32.303Z,100443.78
2023-04-16T11:06:27.022Z,100438.91
2023-04-16T11:09:08.197Z,100433.22
2023-04-16T11:11:38.699Z,100430.78
2023-04-16T11:14:08.291Z,100429.03
2023-04-16T11:16:35.881Z,100424.81
2023-04-16T11:19:03.233Z,100424.06
2023-04-16T11:21:31.838Z,100425.13
2023-04-16T11:23:59.197Z,100421.09
2023-04-16T11:26:28.804Z,100425.22
2023-04-16T11:28:57.174Z,100422.72
2023-04-16T11:31:24.864Z,100428.28
2023-04-16T11:33:52.324Z,100431.72
2023-04-16T11:36:19.685Z,100424.91
2023-04-16T11:38:47.371Z,100421.78
2023-04-16T11:41:21.924Z,100419.81
2023-04-16T11:43:49.289Z,100414.75
2023-04-16T11:46:26.284Z,100424.44
2023-04-16T11:48:57.942Z,100414.31
2023-04-16T11:51:25.278Z,100416.03
2023-04-16T11:53:54.111Z,100412.78
2023-04-16T11:56:26.680Z,100403.16
2023-04-16T11:59:10.013Z,100402.84
2023-04-16T12:01:39.443Z,100400.94
2023-04-16T12:04:11.955Z,100401.63
2023-04-16T12:06:39.600Z,100405.66
2023-04-16T12:09:27.131Z,100403.91
2023-04-16T12:11:54.571Z,100401.59
2023-04-16T12:14:22.997Z,100398.13
2023-04-16T12:16:50.505Z,100379.47
2023-04-16T12:19:18.379Z,100389.66
2023-04-16T12:21:48.134Z,100388.41
2023-04-16T12:24:24.230Z,100376.97
2023-04-16T12:26:57.608Z,100378.91
2023-04-16T12:29:27.619Z,100389.88
2023-04-16T12:31:55.176Z,100376.66
2023-04-16T12:34:29.021Z,100390.16
2023-04-16T12:37:10.613Z,100367.75
2023-04-16T12:39:38.080Z,100377.31
2023-04-16T12:42:09.885Z,100372.78
2023-04-16T12:44:37.516Z,100369.50
2023-04-16T12:47:05.677Z,100372.78
2023-04-16T12:49:33.570Z,100360.13
2023-04-16T12:52:01.157Z,100375.00
2023-04-16T12:54:31.112Z,100376.28
2023-04-16T12:56:58.624Z,100384.88
2023-04-16T12:59:26.127Z,100376.19
2023-04-16T13:01:53.651Z,100381.59
2023-04-16T13:04:22.786Z,100379.06
2023-04-16T13:06:52.539Z,100380.69
2023-04-16T13:09:20.302Z,100372.94
2023-04-16T13:11:47.935Z,100375.31
2023-04-16T13:14:15.733Z,100364.66
2023-04-16T13:16:43.124Z,100359.75
2023-04-16T13:19:10.895Z,100349.94
2023-04-16T13:21:38.467Z,100341.03
2023-04-16T13:24:09.460Z,100350.38
2023-04-16T13:26:36.962Z,100343.25
2023-04-16T13:29:04.385Z,100348.03
2023-04-16T13:31:31.977Z,100351.84
2023-04-16T13:33:59.553Z,100344.31
2023-04-16T13:36:32.189Z,100345.88
2023-04-16T13:38:59.947Z,100343.50
2023-04-16T13:41:27.579Z,100352.56
2023-04-16T13:43:55.038Z,100349.75
2023-04-16T13:46:22.581Z,100350.34
2023-04-16T13:49:00.024Z,100347.13
2023-04-16T13:51:27.884Z,100355.41
2023-04-16T13:53:59.331Z,100351.41
2023-04-16T13:56:26.631Z,100356.50
2023-04-16T13:58:54.008Z,100356.81
2023-04-16T14:01:21.849Z,100348.63
2023-04-16T14:03:50.713Z,100358.56
2023-04-16T14:06:18.247Z,100349.34
2023-04-16T14:08:46.266Z,100351.59
2023-04-16T14:11:13.646Z,100364.88
2023-04-16T14:13:41.833Z,100359.38
2023-04-16T14:16:09.281Z,100364.13
2023-04-16T14:18:41.053Z,100350.41
2023-04-16T14:21:09.064Z,100374.25
2023-04-16T14:23:37.044Z,100364.53
2023-04-16T14:26:04.473Z,100355.28
2023-04-16T14:28:32.091Z,100363.78
2023-04-16T14:30:59.536Z,100355.00
2023-04-16T14:33:27.268Z,100366.84
2023-04-16T14:35:54.957Z,100363.09
2023-04-16T14:38:22.406Z,100365.22
2023-04-16T14:40:49.874Z,100358.13
2023-04-16T14:43:17.365Z,100377.84
2023-04-16T14:45:44.771Z,100361.09
2023-04-16T14:48:12.353Z,100368.03
2023-04-16T14:50:43.622Z,100360.22
2023-04-16T14:53:12.084Z,100355.00
2023-04-16T14:55:39.626Z,100360.91
2023-04-16T14:58:09.470Z,100368.66
2023-04-16T15:00:37.044Z,100372.97
2023-04-16T15:03:05.096Z,100375.69
2023-04-16T15:05:32.609Z,100369.41
2023-04-16T15:08:00.685Z,100383.97
2023-04-16T15:10:28.162Z,100373.09
2023-04-16T15:12:55.706Z,100366.06
2023-04-16T15:15:23.178Z,100382.03
2023-04-16T15:17:51.927Z,100380.03
2023-04-16T15:20:19.538Z,100384.25
2023-04-16T15:22:47.022Z,100380.28
2023-04-16T15:25:14.579Z,100364.91
2023-04-16T15:27:42.216Z,100374.03
2023-04-16T15:30:10.045Z,100377.41
2023-04-16T15:32:40.497Z,100374.59
2023-04-16T15:35:11.177Z,100364.59
2023-04-16T15:37:39.065Z,100377.31
2023-04-16T15:40:08.656Z,100386.34
2023-04-16T15:42:36.226Z,100384.50
2023-04-16T15:45:03.916Z,100393.25
2023-04-16T15:47:31.659Z,100395.94
2023-04-16T15:49:59.104Z,100388.25
2023-04-16T15:52:26.554Z,100402.84
2023-04-16T15:54:54.844Z,100395.25
2023-04-16T15:57:22.294Z,100393.59
2023-04-16T16:00:05.397Z,100389.53
2023-04-16T16:02:34.261Z,100399.66
2023-04-16T16:05:01.950Z,100403.31
2023-04-16T16:07:29.316Z,100402.75
2023-04-16T16:09:58.340Z,100413.50
2023-04-16T16:12:25.827Z,100409.34
2023-04-16T16:14:53.427Z,100408.28
2023-04-16T16:17:20.917Z,100414.16
2023-04-16T16:19:49.347Z,100420.50
2023-04-16T16:22:20.582Z,100421.56
2023-04-16T16:24:54.058Z,100418.56
2023-04-16T16:27:21.705Z,100419.84
2023-04-16T16:29:49.102Z,100411.00
2023-04-16T16:32:16.785Z,100422.78
2023-04-16T16:34:44.291Z,100423.66
2023-04-16T16:37:11.785Z,100438.66
2023-04-16T16:39:39.254Z,100433.25
2023-04-16T16:42:08.639Z,100427.03
2023-04-16T16:44:36.960Z,100429.88
2023-04-16T16:47:04.622Z,100443.94
2023-04-16T16:49:32.178Z,100441.00
2023-04-16T16:51:59.649Z,100445.97
2023-04-16T16:54:27.050Z,100442.31
2023-04-16T16:56:54.608Z,100450.88
2023-04-16T16:59:22.034Z,100452.47
2023-04-16T17:01:49.566Z,100463.81
2023-04-16T17:04:42.265Z,100467.97
2023-04-16T17:07:09.687Z,100468.66
2023-04-16T17:09:38.592Z,100473.63
2023-04-16T17:12:06.396Z,100475.75
2023-04-16T17:14:33.905Z,100475.63
2023-04-16T17:17:01.342Z,100475.81
2023-04-16T17:19:28.738Z,100481.78
2023-04-16T17:21:56.023Z,100479.13
2023-04-16T17:24:23.329Z,100485.44
2023-04-16T17:26:50.766Z,100499.34
2023-04-16T17:29:18.199Z,100496.09
2023-04-16T17:31:45.565Z,100504.63
2023-04-16T17:34:13.165Z,100511.22
2023-04-16T17:36:40.952Z,100505.31
2023-04-16T17:39:08.285Z,100517.38
2023-04-16T17:41:35.686Z,100522.41
2023-04-16T17:44:02.957Z,100516.78
2023-04-16T17:46:30.256Z,100519.47
2023-04-16T17:48:57.580Z,100526.50
2023-04-16T17:51:25.079Z,100524.13
2023-04-16T17:53:53.778Z,100534.13
2023-04-16T17:56:21.883Z,100543.34
2023-04-16T17:58:49.157Z,100539.66
2023-04-16T18:01:16.466Z,100543.03
2023-04-16T18:03:44.499Z,100553.69
2023-04-16T18:06:12.088Z,100551.09
2023-04-16T18:08:39.524Z,100547.84
2023-04-16T18:11:08.462Z,100550.16
2023-04-16T18:13:36.424Z,100556.09
2023-04-16T18:16:03.998Z,100538.28
2023-04-16T18:18:31.611Z,100561.25
2023-04-16T18:20:59.147Z,100549.41
2023-04-16T18:23:27.338Z,100561.81
2023-04-16T18:25:55.062Z,100559.78
2023-04-16T18:28:22.678Z,100563.69
2023-04-16T18:30:50.641Z,100563.84
2023-04-16T18:33:44.464Z,100581.41
2023-04-16T18:36:06.736Z,100582.81
2023-04-16T18:38:34.627Z,100584.44
2023-04-16T18:41:02.297Z,100575.97
2023-04-16T18:43:29.843Z,100572.47
2023-04-16T18:45:57.667Z,100587.38
2023-04-16T18:48:25.569Z,100579.06
2023-04-16T18:50:52.975Z,100586.28
2023-04-16T18:53:21.299Z,100589.09
2023-04-16T18:55:53.685Z,100593.19
2023-04-16T18:58:21.948Z,100581.44
2023-04-16T19:00:58.696Z,100592.88
2023-04-16T19:03:27.568Z,100600.13
2023-04-16T19:05:55.228Z,100595.56
2023-04-16T19:08:22.816Z,100597.47
2023-04-16T19:10:51.241Z,100608.66
2023-04-16T19:13:18.763Z,100606.59
2023-04-16T19:15:46.475Z,100604.53
2023-04-16T19:18:13.916Z,100616.06
2023-04-16T19:20:41.332Z,100610.06
2023-04-16T19:23:09.241Z,100620.72
2023-04-16T19:25:36.622Z,100622.59
2023-04-16T19:28:04.404Z,100622.47
2023-04-16T19:30:31.874Z,100621.88
2023-04-16T19:32:59.527Z,100631.63
2023-04-16T19:35:27.192Z,100627.63
2023-04-16T19:37:56.274Z,100628.56
2023-04-16T19:40:23.631Z,100633.25
2023-04-16T19:42:51.217Z,100633.19
2023-04-16T19:45:18.787Z,100627.88
2023-04-16T19:47:48.777Z,100631.38
2023-04-16T19:50:16.286Z,100628.75
2023-04-16T19:52:43.684Z,100629.69
2023-04-16T19:55:11.195Z,100628.75
2023-04-16T19:57:38.788Z,100636.97
2023-04-16T20:00:11.265Z,100639.91
2023-04-16T20:02:39.709Z,100632.91
2023-04-16T20:05:15.529Z,100634.00
2023-04-16T20:07:57.571Z,100635.94
2023-04-16T20:10:30.173Z,100637.78
2023-04-16T20:13:18.756Z,100624.34
2023-04-16T20:15:58.239Z,100617.56
2023-04-16T20:18:35.502Z,100631.06
2023-04-16T20:21:23.540Z,100640.56
2023-04-16T20:23:55.773Z,100625.66
2023-04-16T20:26:36.956Z,100634.38
2023-04-16T20:29:20.959Z,100634.50
2023-04-16T20:31:52.646Z,100612.16
2023-04-16T20:34:41.127Z,100643.88
2023-04-16T20:37:19.812Z,100606.97
2023-04-16T20:39:57.366Z,100628.97
2023-04-16T20:42:43.758Z,100640.84
2023-04-16T20:45:24.833Z,100636.31
2023-04-16T20:47:59.678Z,100633.44
2023-04-16T20:50:33.005Z,100630.44
2023-04-16T20:53:13.718Z,100645.44
2023-04-16T20:55:44.138Z,100622.09
2023-04-16T20:58:24.942Z,100641.88
2023-04-16T21:00:57.212Z,100607.50
2023-04-16T21:03:31.578Z,100626.78
2023-04-16T21:06:11.527Z,100610.13
2023-04-16T21:08:39.448Z,100640.78
2023-04-16T21:11:14.057Z,100639.38
2023-04-16T21:13:48.617Z,100626.00
2023-04-16T21:16:31.166Z,100621.72
2023-04-16T21:19:09.052Z,100623.41
2023-04-16T21:21:40.355Z,100634.97
2023-04-16T21:24:09.740Z,100624.19
2023-04-16T21:26:50.060Z,100625.53
2023-04-16T21:29:24.447Z,100631.19
2023-04-16T21:31:56.509Z,100646.41
2023-04-16T21:34:30.297Z,100637.00
2023-04-16T21:37:03.347Z,100643.69
2023-04-16T21:39:33.616Z,100641.41
2023-04-16T21:42:09.364Z,100616.69
2023-04-16T21:44:48.342Z,100617.88
2023-04-16T21:47:23.565Z,100624.72
2023-04-16T21:50:03.476Z,100625.66
2023-04-16T21:52:41.389Z,100627.63
2023-04-16T21:55:18.308Z,100618.19
2023-04-16T21:58:08.054Z,100635.09
2023-04-16T22:00:47.144Z,100627.41
2023-04-16T22:03:33.425Z,100628.63
2023-04-16T22:06:09.188Z,100599.00
2023-04-16T22:08:47.988Z,100615.28
2023-04-16T22:11:25.147Z,100598.34
2023-04-16T22:14:03.529Z,100607.56
2023-04-16T22:16:36.594Z,100602.06
2023-04-16T22:19:15.093Z,100608.38
2023-04-16T22:21:49.922Z,100612.38
2023-04-16T22:24:30.286Z,100604.78
2023-04-16T22:27:05.868Z,100597.13
2023-04-16T22:29:48.095Z,100628.00
2023-04-16T22:32:31.538Z,100603.56
2023-04-16T22:35:03.649Z,100610.56
2023-04-16T22:37:52.315Z,100605.53
2023-04-16T22:40:24.332Z,100612.94
2023-04-16T22:42:59.028Z,100606.28
2023-04-16T22:45:29.421Z,100588.59
2023-04-16T22:47:56.962Z,100608.25
2023-04-16T22:50:24.338Z,100620.09
2023-04-16T22:52:51.752Z,100619.78
2023-04-16T22:55:19.277Z,100620.03
2023-04-16T22:57:47.607Z,100610.06
2023-04-16T23:00:18.011Z,100604.91
2023-04-16T23:02:45.725Z,100609.25
2023-04-16T23:05:13.270Z,100610.56
2023-04-16T23:07:40.598Z,100608.78
2023-04-16T23:10:08.756Z,100598.97
2023-04-16T23:12:39.272Z,100609.91
2023-04-16T23:15:07.130Z,100594.66
2023-04-16T23:17:35.285Z,100605.53
2023-04-16T23:20:05.320Z,100591.53
2023-04-16T23:22:32.786Z,100603.78
2023-04-16T23:25:00.264Z,100608.72
2023-04-16T23:27:28.152Z,100593.78
2023-04-16T23:29:55.762Z,100601.44
2023-04-16T23:32:23.158Z,100610.03
2023-04-16T23:34:50.581Z,100603.22
2023-04-16T23:37:18.109Z,100589.16
2023-04-16T23:39:45.566Z,100604.69
2023-04-16T23:42:13.106Z,100603.66
2023-04-16T23:44:40.579Z,100603.78
2023-04-16T23:47:08.239Z,100606.44
2023-04-16T23:49:35.725Z,100592.03
2023-04-16T23:52:03.305Z,100604.91
2023-04-16T23:54:30.676Z,100608.09
2023-04-16T23:56:58.051Z,100574.50
2023-04-16T23:59:25.497Z,100565.31
